createdAt,value
2022-12-16T00:02:06.273Z,4.97
2022-12-16T00:04:35.538Z,7.03
2022-12-16T00:07:06.387Z,5.97
2022-12-16T00:09:38.738Z,6.07
2022-12-16T00:12:08.469Z,6.17
2022-12-16T00:14:41.220Z,8.00
2022-12-16T00:17:10.005Z,5.50
2022-12-16T00:19:41.877Z,6.23
2022-12-16T00:22:13.067Z,6.83
2022-12-16T00:24:47.083Z,8.53
2022-12-16T00:27:16.236Z,6.13
2022-12-16T00:29:46.087Z,7.40
2022-12-16T00:32:18.837Z,8.17
2022-12-16T00:34:48.885Z,7.17
2022-12-16T00:37:18.493Z,7.07
2022-12-16T00:39:48.431Z,5.97
2022-12-16T00:42:17.608Z,5.30
2022-12-16T00:44:46.302Z,6.00
2022-12-16T00:47:15.134Z,4.00
2022-12-16T00:49:44.380Z,5.03
2022-12-16T00:52:13.739Z,8.37
2022-12-16T00:54:43.029Z,9.10
2022-12-16T00:57:24.327Z,5.47
2022-12-16T00:59:56.907Z,5.77
2022-12-16T01:02:27.422Z,5.00
2022-12-16T01:04:57.543Z,5.77
2022-12-16T01:07:33.269Z,5.27
2022-12-16T01:10:16.833Z,4.50
2022-12-16T01:12:48.465Z,4.53
2022-12-16T01:15:18.270Z,6.40
2022-12-16T01:17:50.560Z,6.10
2022-12-16T01:20:20.273Z,6.77
2022-12-16T01:22:52.883Z,6.40
2022-12-16T01:25:28.205Z,4.33
2022-12-16T01:27:59.150Z,4.60
2022-12-16T01:30:28.262Z,5.07
2022-12-16T01:32:57.825Z,4.73
2022-12-16T01:38:23.071Z,3.67
2022-12-16T01:40:55.083Z,4.33
2022-12-16T01:43:30.811Z,3.73
2022-12-16T01:46:03.845Z,5.90
2022-12-16T01:48:47.536Z,4.57
2022-12-16T01:51:22.843Z,4.97
2022-12-16T01:53:57.584Z,5.17
2022-12-16T01:56:29.672Z,5.40
2022-12-16T01:59:01.796Z,4.63
2022-12-16T02:01:30.806Z,5.40
2022-12-16T02:04:04.185Z,5.90
2022-12-16T02:06:33.368Z,6.10
2022-12-16T02:09:06.492Z,5.47
2022-12-16T02:12:14.992Z,4.27
2022-12-16T02:15:00.596Z,4.90
2022-12-16T02:17:56.392Z,5.00
2022-12-16T02:21:11.535Z,4.10
2022-12-16T02:24:03.354Z,5.57
2022-12-16T02:26:54.773Z,6.20
2022-12-16T02:29:46.802Z,5.80
2022-12-16T02:32:27.632Z,5.27
2022-12-16T02:35:05.023Z,6.63
2022-12-16T02:37:42.257Z,5.00
2022-12-16T02:40:21.644Z,5.97
2022-12-16T02:42:55.237Z,5.93
2022-12-16T02:45:28.655Z,4.70
2022-12-16T02:47:59.397Z,4.80
2022-12-16T02:50:31.555Z,7.00
2022-12-16T02:53:02.390Z,6.30
2022-12-16T02:55:36.939Z,5.30
2022-12-16T02:58:21.422Z,7.60
2022-12-16T03:01:05.184Z,6.00
2022-12-16T03:03:41.618Z,8.60
2022-12-16T03:09:29.131Z,6.30
2022-12-16T03:12:08.299Z,7.13
2022-12-16T03:14:46.744Z,7.10
2022-12-16T03:17:20.814Z,8.07
2022-12-16T03:20:02.334Z,7.03
2022-12-16T03:22:35.343Z,6.73
2022-12-16T03:25:07.211Z,8.23
2022-12-16T03:27:55.661Z,5.83
2022-12-16T03:30:27.949Z,6.37
2022-12-16T03:33:02.439Z,4.37
2022-12-16T03:35:37.741Z,7.60
2022-12-16T03:38:09.949Z,5.53
2022-12-16T03:40:40.099Z,6.37
2022-12-16T03:43:11.425Z,5.67
2022-12-16T03:45:41.759Z,6.47
2022-12-16T03:48:12.902Z,7.43
2022-12-16T03:50:42.697Z,6.40
2022-12-16T03:53:11.631Z,6.40
2022-12-16T03:55:39.993Z,6.87
2022-12-16T03:58:08.576Z,6.20
2022-12-16T04:00:37.989Z,5.27
2022-12-16T04:03:06.895Z,5.23
2022-12-16T04:05:51.765Z,5.53
2022-12-16T04:08:24.455Z,4.90
2022-12-16T04:11:11.460Z,6.60
2022-12-16T04:13:59.272Z,6.40
2022-12-16T04:16:48.067Z,6.70
2022-12-16T04:19:47.641Z,6.97
2022-12-16T04:22:40.292Z,7.10
2022-12-16T04:25:17.429Z,6.97
2022-12-16T04:27:49.295Z,4.90
2022-12-16T04:30:22.371Z,6.70
2022-12-16T04:33:27.318Z,5.37
2022-12-16T04:36:13.992Z,4.80
2022-12-16T04:39:15.030Z,7.33
2022-12-16T04:42:03.110Z,6.10
2022-12-16T04:44:50.003Z,5.90
2022-12-16T04:47:36.691Z,4.43
2022-12-16T04:50:23.391Z,5.57
2022-12-16T04:53:15.310Z,5.33
2022-12-16T04:56:04.382Z,5.03
2022-12-16T04:58:54.152Z,5.67
2022-12-16T05:01:51.260Z,7.33
2022-12-16T05:04:41.532Z,6.83
2022-12-16T05:07:37.731Z,7.67
2022-12-16T05:10:26.131Z,6.20
2022-12-16T05:13:12.814Z,6.63
2022-12-16T05:16:12.969Z,4.77
2022-12-16T05:18:59.618Z,5.80
2022-12-16T05:21:46.535Z,5.83
2022-12-16T05:24:33.463Z,6.87
2022-12-16T05:27:24.877Z,4.70
2022-12-16T05:30:10.812Z,5.33
2022-12-16T05:32:58.129Z,4.10
2022-12-16T05:35:44.825Z,5.83
2022-12-16T05:38:32.047Z,6.33
2022-12-16T05:41:18.131Z,5.07
2022-12-16T07:16:55.839Z,6.97
2022-12-16T07:19:44.298Z,7.33
2022-12-16T07:22:51.216Z,5.13
2022-12-16T09:08:30.909Z,4.67
2022-12-16T09:11:19.619Z,3.70
2022-12-16T09:14:05.995Z,4.07
2022-12-16T09:16:51.811Z,3.33
2022-12-16T09:19:37.512Z,6.63
2022-12-16T09:22:23.379Z,6.67
2022-12-16T09:25:10.715Z,5.40
2022-12-16T09:27:57.099Z,7.20
2022-12-16T09:30:43.256Z,4.90
2022-12-16T09:33:29.123Z,6.50
2022-12-16T09:36:14.903Z,5.97
2022-12-16T09:39:00.653Z,9.70
2022-12-16T09:41:59.404Z,6.57
2022-12-16T09:48:05.411Z,7.60
2022-12-16T09:54:33.789Z,8.23
2022-12-16T09:57:23.981Z,9.53
2022-12-16T10:00:11.203Z,8.23
2022-12-16T10:03:01.864Z,10.80
2022-12-16T10:06:02.618Z,9.17
2022-12-16T10:08:58.631Z,9.70
2022-12-16T10:12:06.378Z,11.30
2022-12-16T10:14:59.249Z,11.67
2022-12-16T10:17:44.881Z,11.13
2022-12-16T10:20:38.786Z,11.97
2022-12-16T10:23:32.314Z,10.60
2022-12-16T10:26:24.846Z,10.13
2022-12-16T10:29:17.078Z,10.93
2022-12-16T10:32:04.294Z,12.67
2022-12-16T10:34:53.704Z,12.77
2022-12-16T10:37:48.661Z,12.07
2022-12-16T10:40:40.866Z,11.83
2022-12-16T10:43:35.147Z,11.27
2022-12-16T10:46:28.327Z,12.13
2022-12-16T10:49:15.769Z,13.37
2022-12-16T10:52:06.791Z,12.07
2022-12-16T10:55:00.572Z,15.13
2022-12-16T10:57:55.741Z,16.37
2022-12-16T11:00:59.106Z,14.63
2022-12-16T11:03:47.465Z,14.00
2022-12-16T11:06:40.986Z,15.17
2022-12-16T11:09:39.266Z,12.17
2022-12-16T11:12:43.136Z,15.73
2022-12-16T11:15:42.187Z,16.10
2022-12-16T11:18:30.742Z,14.53
2022-12-16T11:21:27.098Z,17.57
2022-12-16T11:24:29.931Z,15.97
2022-12-16T11:27:18.832Z,12.75
2022-12-16T11:30:15.580Z,13.37
2022-12-16T11:33:06.120Z,12.73
2022-12-16T11:35:55.991Z,13.00
2022-12-16T11:38:46.159Z,13.95
2022-12-16T11:41:46.786Z,17.37
2022-12-16T11:44:37.639Z,18.80
2022-12-16T11:47:45.855Z,16.17
2022-12-16T11:50:35.934Z,15.43
2022-12-16T11:53:25.723Z,12.88
2022-12-16T11:56:16.239Z,18.65
2022-12-16T11:59:06.784Z,16.65
2022-12-16T12:01:58.467Z,16.67
2022-12-16T12:04:44.525Z,17.52
2022-12-16T12:07:45.988Z,14.40
2022-12-16T12:10:58.022Z,16.25
2022-12-16T12:14:05.439Z,15.60
2022-12-16T12:17:02.157Z,18.12
2022-12-16T12:20:03.109Z,16.80
2022-12-16T12:22:53.867Z,19.23
2022-12-16T12:25:46.922Z,19.15
2022-12-16T12:28:46.942Z,17.90
2022-12-16T12:31:45.314Z,16.85
2022-12-16T12:34:41.683Z,17.55
2022-12-16T12:37:38.913Z,16.87
2022-12-16T12:40:38.819Z,16.60
2022-12-16T12:43:38.515Z,17.42
2022-12-16T12:46:32.937Z,16.00
2022-12-16T12:49:27.782Z,12.77
2022-12-16T12:52:27.180Z,17.42
2022-12-16T12:55:19.849Z,16.48
2022-12-16T12:58:08.248Z,15.70
2022-12-16T13:01:16.315Z,15.52
2022-12-16T13:04:07.569Z,14.15
2022-12-16T13:06:54.886Z,15.07
2022-12-16T13:09:46.387Z,14.45
2022-12-16T13:12:42.712Z,14.15
2022-12-16T13:15:30.647Z,14.45
2022-12-16T13:18:39.742Z,12.95
2022-12-16T13:21:59.304Z,14.40
2022-12-16T13:24:55.952Z,12.57
2022-12-16T13:27:42.882Z,14.82
2022-12-16T13:30:43.468Z,14.07
2022-12-16T13:33:45.999Z,12.65
2022-12-16T13:36:33.433Z,15.27
2022-12-16T13:39:41.931Z,13.50
2022-12-16T13:43:06.282Z,13.25
2022-12-16T13:45:55.365Z,14.32
2022-12-16T13:48:54.212Z,14.00
2022-12-16T13:52:25.758Z,11.50
2022-12-16T13:55:24.743Z,9.10
2022-12-16T13:58:22.927Z,10.30
2022-12-16T14:01:20.855Z,11.40
2022-12-16T14:04:10.422Z,12.13
2022-12-16T14:06:57.903Z,9.23
2022-12-16T14:09:50.900Z,10.45
2022-12-16T14:13:00.446Z,10.88
2022-12-16T14:15:54.530Z,11.18
2022-12-16T14:18:51.322Z,12.23
2022-12-16T14:21:45.981Z,12.20
2022-12-16T14:24:40.220Z,7.83
2022-12-16T14:27:32.558Z,9.52
2022-12-16T14:30:18.247Z,11.35
2022-12-16T14:33:06.103Z,12.77
2022-12-16T14:35:51.809Z,13.05
2022-12-16T14:38:42.178Z,14.00
2022-12-16T14:41:33.171Z,12.00
2022-12-16T14:44:20.090Z,9.37
2022-12-16T14:47:09.166Z,8.57
2022-12-16T14:50:09.529Z,8.57
2022-12-16T14:52:51.925Z,10.20
2022-12-16T14:55:44.880Z,8.23
2022-12-16T14:58:32.466Z,11.03
2022-12-16T15:01:23.839Z,12.40
2022-12-16T15:04:10.496Z,11.77
2022-12-16T15:07:01.824Z,9.73
2022-12-16T15:09:51.435Z,9.63
2022-12-16T15:12:42.426Z,11.07
2022-12-16T15:15:33.825Z,9.87
2022-12-16T15:18:21.750Z,11.43
2022-12-16T15:21:09.849Z,9.93
2022-12-16T15:23:59.971Z,11.20
2022-12-16T15:26:47.930Z,10.50
2022-12-16T15:29:51.383Z,6.50
2022-12-16T15:32:50.873Z,9.10
2022-12-16T15:35:50.957Z,12.10
2022-12-16T15:38:46.424Z,10.53
2022-12-16T15:41:45.653Z,9.67
2022-12-16T15:44:36.335Z,8.83
2022-12-16T15:47:24.477Z,6.70
2022-12-16T15:50:10.693Z,8.13
2022-12-16T15:52:59.020Z,6.67
2022-12-16T15:55:48.602Z,6.87
2022-12-16T15:58:41.787Z,7.23
2022-12-16T16:01:28.853Z,7.73
2022-12-16T16:04:15.883Z,6.53
2022-12-16T16:07:05.908Z,6.63
2022-12-16T16:09:55.277Z,8.30
2022-12-16T16:12:42.379Z,5.93
2022-12-16T16:15:40.803Z,6.97
2022-12-16T16:18:28.984Z,6.03
2022-12-16T16:21:15.077Z,6.33
2022-12-16T16:24:12.633Z,6.27
2022-12-16T16:26:59.546Z,8.57
2022-12-16T16:29:45.532Z,6.13
2022-12-16T16:32:32.881Z,5.77
2022-12-16T16:35:18.644Z,5.97
2022-12-16T16:38:04.792Z,7.13
2022-12-16T16:40:53.971Z,7.47
2022-12-16T16:43:41.630Z,5.20
2022-12-16T16:46:48.908Z,8.20
2022-12-16T16:49:42.213Z,7.43
2022-12-16T16:52:34.124Z,6.93
2022-12-16T16:55:21.798Z,5.07
2022-12-16T17:01:38.723Z,8.47
2022-12-16T17:04:24.908Z,7.80
2022-12-16T17:07:11.972Z,6.87
2022-12-16T17:09:58.062Z,7.13
2022-12-16T17:12:46.506Z,8.53
2022-12-16T17:15:35.812Z,7.90
2022-12-16T17:18:22.595Z,5.80
2022-12-16T17:28:16.044Z,6.10
2022-12-16T17:31:02.251Z,9.03
2022-12-16T17:33:48.147Z,7.77
2022-12-16T17:36:36.957Z,6.67
2022-12-16T17:39:24.227Z,4.63
2022-12-16T17:42:15.767Z,6.43
2022-12-16T17:45:01.561Z,5.77
2022-12-16T17:47:47.694Z,6.43
2022-12-16T17:50:33.918Z,4.83
2022-12-16T17:53:20.593Z,9.00
2022-12-16T17:56:06.254Z,7.23
2022-12-16T17:58:56.353Z,7.07
2022-12-16T18:01:42.781Z,5.87
2022-12-16T18:04:29.365Z,4.60
2022-12-16T18:07:15.219Z,6.53
2022-12-16T18:10:02.497Z,5.43
2022-12-16T18:12:48.636Z,5.00
2022-12-16T18:15:36.151Z,5.57
2022-12-16T18:18:23.084Z,6.70
2022-12-16T18:21:09.638Z,5.23
2022-12-16T18:23:55.564Z,7.13
2022-12-16T18:26:41.960Z,6.53
2022-12-16T18:29:27.472Z,5.93
2022-12-16T18:32:15.249Z,6.17
2022-12-16T18:35:04.303Z,5.60
2022-12-16T18:37:50.138Z,6.40
2022-12-16T18:40:35.736Z,7.73
2022-12-16T18:43:21.723Z,5.00
2022-12-16T18:46:10.393Z,7.80
2022-12-16T18:48:57.894Z,8.50
2022-12-16T18:51:43.406Z,7.30
2022-12-16T18:54:29.264Z,6.13
2022-12-16T18:57:14.924Z,8.87
2022-12-16T19:00:00.846Z,7.37
2022-12-16T19:02:46.574Z,6.77
2022-12-16T19:05:34.571Z,6.17
2022-12-16T19:08:20.656Z,5.73
2022-12-16T19:11:06.935Z,6.33
2022-12-16T19:13:52.578Z,5.97
2022-12-16T19:16:41.093Z,8.23
2022-12-16T19:19:26.703Z,9.20
2022-12-16T19:22:15.035Z,8.67
2022-12-16T19:25:00.757Z,7.60
2022-12-16T19:27:46.515Z,8.93
2022-12-16T19:30:33.218Z,6.60
2022-12-16T19:33:19.251Z,7.87
2022-12-16T19:36:04.758Z,6.27
2022-12-16T19:38:51.883Z,9.10
2022-12-16T19:41:38.206Z,7.87
2022-12-16T19:44:24.193Z,6.97
2022-12-16T19:47:09.925Z,10.57
2022-12-16T19:49:56.082Z,7.73
2022-12-16T19:52:42.415Z,7.97
2022-12-16T19:55:30.341Z,9.37
2022-12-16T19:58:30.754Z,9.73
2022-12-16T20:01:16.985Z,9.63
2022-12-16T20:04:03.164Z,8.05
2022-12-16T20:06:55.996Z,5.12
2022-12-16T20:09:45.189Z,6.03
2022-12-16T20:12:32.406Z,8.40
2022-12-16T20:15:18.368Z,7.03
2022-12-16T20:18:03.982Z,6.70
2022-12-16T20:20:49.800Z,7.73
2022-12-16T20:23:35.542Z,8.00
2022-12-16T20:26:21.462Z,6.60
2022-12-16T20:29:08.928Z,6.63
2022-12-16T20:31:55.886Z,9.38
2022-12-16T20:34:42.378Z,9.80
2022-12-16T20:37:28.916Z,7.83
2022-12-16T20:40:14.781Z,6.82
2022-12-16T20:43:00.798Z,7.87
2022-12-16T20:45:48.059Z,8.17
2022-12-16T20:48:35.622Z,8.32
2022-12-16T20:51:26.519Z,10.20
2022-12-16T20:54:13.358Z,10.00
2022-12-16T20:56:59.512Z,7.43
2022-12-16T20:59:45.507Z,7.10
2022-12-16T21:05:39.264Z,7.78
2022-12-16T21:08:25.115Z,7.15
2022-12-16T21:11:15.088Z,7.53
2022-12-16T21:14:00.670Z,7.65
2022-12-16T21:16:46.670Z,8.17
2022-12-16T21:19:35.230Z,7.20
2022-12-16T21:22:21.228Z,8.33
2022-12-16T21:25:06.898Z,9.27
2022-12-16T21:27:52.892Z,8.77
2022-12-16T21:30:38.414Z,8.80
2022-12-16T21:33:24.565Z,8.73
2022-12-16T21:36:12.018Z,10.63
2022-12-16T21:38:58.131Z,6.28
2022-12-16T21:41:43.815Z,7.37
2022-12-16T21:44:44.615Z,9.10
2022-12-16T21:47:30.506Z,7.87
2022-12-16T21:50:16.598Z,10.83
2022-12-16T21:53:05.837Z,8.70
2022-12-16T21:55:51.902Z,9.77
2022-12-16T21:58:37.746Z,10.50
2022-12-16T22:01:24.102Z,7.70
2022-12-16T22:04:10.051Z,8.40
2022-12-16T22:06:55.560Z,11.45
2022-12-16T22:09:43.333Z,9.93
2022-12-16T22:12:29.071Z,10.27
2022-12-16T22:15:15.051Z,8.23
2022-12-16T22:18:00.742Z,8.23
2022-12-16T22:20:46.746Z,7.05
2022-12-16T22:23:32.322Z,9.40
2022-12-16T22:26:20.169Z,8.02
2022-12-16T22:29:06.586Z,5.40
2022-12-16T22:31:52.397Z,8.13
2022-12-16T22:34:38.215Z,7.50
2022-12-16T22:37:24.078Z,8.00
2022-12-16T22:40:09.685Z,8.43
2022-12-16T22:42:57.020Z,5.78
2022-12-16T22:45:42.810Z,8.90
2022-12-16T22:48:30.541Z,9.10
2022-12-16T22:51:16.297Z,10.20
2022-12-16T22:54:02.124Z,10.40
2022-12-16T22:56:48.010Z,9.07
2022-12-16T22:59:35.239Z,8.18
2022-12-16T23:02:20.914Z,7.70
2022-12-16T23:05:07.006Z,9.20
2022-12-16T23:07:55.634Z,11.37
2022-12-16T23:10:42.989Z,11.17
2022-12-16T23:13:29.295Z,7.97
2022-12-16T23:16:20.363Z,7.32
2022-12-16T23:19:21.297Z,7.87
2022-12-16T23:22:07.668Z,8.88
2022-12-16T23:24:53.851Z,7.33
2022-12-16T23:27:39.935Z,6.83
2022-12-16T23:30:27.359Z,8.30
2022-12-16T23:33:17.081Z,9.60
2022-12-16T23:36:12.539Z,9.55
2022-12-16T23:39:03.291Z,7.20
2022-12-16T23:41:49.965Z,9.30
2022-12-16T23:44:38.295Z,8.63
2022-12-16T23:47:24.569Z,8.67
2022-12-16T23:50:15.794Z,8.60
2022-12-16T23:53:01.900Z,7.53
2022-12-16T23:55:47.806Z,8.27
2022-12-16T23:58:33.613Z,8.77
